KSMX/SMX METAR and TAF weather

Enter ICAO airport designator
Station Type Date Time Source
KSMX METAR 2019/06/26 05:51 UTC NOAA

KSMX 260551Z AUTO 10SM OVC012 16/13 A2996 RMK AO2 SLP147 T01560133 10211 20156 51013


Station Type Date Time Source
KSMX Decoded METAR 2019/06/26 05:51 UTC NOAA

SANTA MARIA PUBLIC AIRPORT, CA, United States (KSMX) 34-54N 120-28W 74M
Jun 26, 2019 - 01:51 AM EDT / 2019.06.26 0551 UTC
Visibility: 10 mile(s):0
Sky conditions: overcast
Temperature: 60.1 F (15.6 C)
Dew Point: 55.9 F (13.3 C)
Relative Humidity: 86%
Pressure (altimeter): 29.96 in. Hg (1014 hPa)
Pressure tendency: 0.04 inches (1.3 hPa) higher than three hours ago
ob: KSMX 260551Z AUTO 10SM OVC012 16/13 A2996 RMK AO2 SLP147 T01560133 10211 20156 51013
cycle: 6

Station Type Date Time Source
KSMX TAF 2019/06/26 06:40 UTC NOAA

TAF KSMX 260538Z 2606/2706 VRB03KT P6SM OVC013
FM260900 VRB03KT 3SM BR OVC009
FM261600 VRB03KT P6SM OVC012
FM261900 31007KT P6SM SCT015
FM262100 31014KT P6SM SKC
FM270300 31007KT P6SM SKC

Example: see airport list